createdAt,value
2022-10-25T00:00:24.090Z,14.97
2022-10-25T00:01:24.160Z,14.89
2022-10-25T00:02:24.226Z,14.96
2022-10-25T00:03:24.100Z,14.94
2022-10-25T00:04:24.076Z,14.89
2022-10-25T00:05:24.091Z,14.94
2022-10-25T00:06:24.076Z,14.88
2022-10-25T00:07:24.081Z,14.94
2022-10-25T00:08:24.071Z,14.89
2022-10-25T00:09:24.069Z,14.86
2022-10-25T00:10:25.739Z,14.94
2022-10-25T00:11:24.070Z,14.89
2022-10-25T00:12:24.059Z,14.94
2022-10-25T00:13:24.056Z,14.89
2022-10-25T00:14:24.052Z,14.88
2022-10-25T00:15:24.052Z,14.85
2022-10-25T00:16:24.051Z,14.77
2022-10-25T00:17:24.047Z,14.88
2022-10-25T00:18:24.055Z,14.88
2022-10-25T00:19:24.047Z,14.86
2022-10-25T00:20:24.054Z,14.84
2022-10-25T00:21:24.057Z,14.86
2022-10-25T00:22:24.040Z,14.78
2022-10-25T00:23:24.030Z,14.79
2022-10-25T00:24:24.034Z,14.82
2022-10-25T00:25:24.025Z,14.82
2022-10-25T00:26:24.028Z,14.88
2022-10-25T00:27:24.040Z,14.88
2022-10-25T00:28:24.026Z,14.79
2022-10-25T00:30:24.015Z,14.82
2022-10-25T00:31:24.028Z,14.85
2022-10-25T00:32:24.025Z,14.85
2022-10-25T00:33:24.002Z,14.79
2022-10-25T00:34:24.025Z,14.79
2022-10-25T00:35:24.009Z,14.79
2022-10-25T00:36:24.017Z,14.86
2022-10-25T00:37:24.008Z,14.82
2022-10-25T00:38:23.991Z,14.84
2022-10-25T00:39:24.004Z,14.79
2022-10-25T00:40:23.995Z,14.79
2022-10-25T00:41:24.004Z,14.78
2022-10-25T00:42:23.988Z,14.78
2022-10-25T00:43:23.980Z,14.81
2022-10-25T00:44:23.979Z,14.79
2022-10-25T00:45:23.999Z,14.66
2022-10-25T00:46:23.975Z,14.78
2022-10-25T00:47:23.969Z,14.68
2022-10-25T00:48:23.969Z,14.68
2022-10-25T00:49:23.965Z,14.79
2022-10-25T00:50:23.980Z,14.66
2022-10-25T00:51:23.988Z,14.72
2022-10-25T00:52:23.961Z,14.69
2022-10-25T00:53:23.952Z,14.73
2022-10-25T00:54:23.957Z,14.79
2022-10-25T00:55:23.951Z,14.69
2022-10-25T00:56:23.956Z,14.72
2022-10-25T00:57:23.956Z,14.72
2022-10-25T00:58:23.943Z,14.66
2022-10-25T00:59:23.946Z,14.77
2022-10-25T01:00:23.946Z,14.72
2022-10-25T01:01:24.082Z,14.69
2022-10-25T01:02:24.005Z,14.70
2022-10-25T01:03:23.953Z,14.70
2022-10-25T01:04:23.934Z,14.69
2022-10-25T01:05:23.966Z,14.70
2022-10-25T01:06:23.968Z,14.69
2022-10-25T01:07:23.918Z,14.68
2022-10-25T01:08:23.913Z,14.68
2022-10-25T01:09:23.915Z,14.65
2022-10-25T01:10:23.909Z,14.59
2022-10-25T01:11:24.039Z,14.66
2022-10-25T01:12:23.925Z,14.63
2022-10-25T01:13:23.903Z,14.55
2022-10-25T01:14:23.924Z,14.70
2022-10-25T01:15:23.903Z,14.69
2022-10-25T01:16:24.054Z,14.68
2022-10-25T01:17:23.894Z,14.63
2022-10-25T01:18:23.890Z,14.62
2022-10-25T01:19:23.944Z,14.73
2022-10-25T01:20:23.886Z,14.73
2022-10-25T01:21:24.019Z,14.66
2022-10-25T01:22:23.901Z,14.68
2022-10-25T01:23:23.907Z,14.70
2022-10-25T01:24:23.905Z,14.66
2022-10-25T01:25:23.914Z,14.73
2022-10-25T01:26:23.945Z,14.77
2022-10-25T01:27:23.867Z,14.69
2022-10-25T01:28:23.893Z,14.69
2022-10-25T01:29:23.876Z,14.66
2022-10-25T01:30:23.869Z,14.72
2022-10-25T01:31:23.980Z,14.68
2022-10-25T01:32:23.874Z,14.69
2022-10-25T01:33:23.869Z,14.63
2022-10-25T01:34:23.862Z,14.72
2022-10-25T01:35:23.840Z,14.69
2022-10-25T01:36:24.003Z,14.66
2022-10-25T01:37:23.843Z,14.69
2022-10-25T01:38:23.839Z,14.70
2022-10-25T01:39:23.833Z,14.69
2022-10-25T01:40:23.839Z,14.66
2022-10-25T01:41:24.081Z,14.77
2022-10-25T01:42:23.833Z,14.65
2022-10-25T01:43:23.835Z,14.70
2022-10-25T01:44:23.886Z,14.66
2022-10-25T01:45:23.826Z,14.69
2022-10-25T01:46:23.827Z,14.70
2022-10-25T01:47:23.827Z,14.68
2022-10-25T01:48:23.810Z,14.73
2022-10-25T01:49:23.810Z,14.70
2022-10-25T01:50:23.805Z,14.63
2022-10-25T01:51:23.816Z,14.65
2022-10-25T01:52:23.804Z,14.69
2022-10-25T01:53:23.805Z,14.68
2022-10-25T01:54:23.798Z,14.72
2022-10-25T01:55:23.811Z,14.66
2022-10-25T01:56:23.807Z,14.69
2022-10-25T01:57:23.784Z,14.68
2022-10-25T01:58:23.795Z,14.66
2022-10-25T01:59:23.781Z,14.77
2022-10-25T02:00:23.831Z,14.69
2022-10-25T02:01:23.972Z,14.72
2022-10-25T02:02:23.784Z,14.69
2022-10-25T02:03:23.776Z,14.70
2022-10-25T02:04:23.792Z,14.66
2022-10-25T02:05:23.774Z,14.69
2022-10-25T02:06:23.778Z,14.70
2022-10-25T02:07:23.774Z,14.66
2022-10-25T02:08:23.756Z,14.68
2022-10-25T02:09:23.763Z,14.70
2022-10-25T02:10:23.768Z,14.72
2022-10-25T02:11:23.757Z,14.68
2022-10-25T02:12:23.745Z,14.81
2022-10-25T02:13:23.758Z,14.78
2022-10-25T02:14:23.754Z,14.85
2022-10-25T02:15:23.745Z,14.78
2022-10-25T02:16:23.759Z,14.81
2022-10-25T02:17:23.752Z,14.81
2022-10-25T02:18:23.809Z,14.79
2022-10-25T02:19:23.744Z,14.82
2022-10-25T02:20:23.736Z,14.81
2022-10-25T02:21:23.723Z,14.78
2022-10-25T02:22:23.751Z,14.78
2022-10-25T02:23:23.790Z,14.88
2022-10-25T02:24:23.733Z,14.84
2022-10-25T02:25:23.716Z,14.79
2022-10-25T02:26:23.724Z,14.86
2022-10-25T02:27:23.741Z,14.82
2022-10-25T02:28:23.730Z,14.81
2022-10-25T02:29:23.736Z,14.85
2022-10-25T02:30:23.716Z,14.82
2022-10-25T02:31:23.703Z,14.84
2022-10-25T02:32:23.699Z,14.79
2022-10-25T02:33:23.691Z,14.85
2022-10-25T02:34:23.722Z,14.79
2022-10-25T02:35:23.691Z,14.79
2022-10-25T02:36:23.697Z,14.89
2022-10-25T02:37:23.694Z,14.86
2022-10-25T02:38:23.696Z,14.86
2022-10-25T02:39:26.515Z,14.78
2022-10-25T02:40:23.694Z,14.86
2022-10-25T02:41:23.697Z,14.81
2022-10-25T02:42:23.676Z,14.89
2022-10-25T02:43:23.717Z,14.88
2022-10-25T02:44:23.670Z,14.78
2022-10-25T02:45:23.671Z,14.88
2022-10-25T02:46:23.686Z,14.92
2022-10-25T02:47:23.666Z,14.88
2022-10-25T02:48:23.676Z,14.88
2022-10-25T02:49:23.673Z,14.86
2022-10-25T02:50:23.664Z,14.85
2022-10-25T02:51:23.657Z,14.89
2022-10-25T02:52:23.667Z,14.84
2022-10-25T02:53:23.674Z,14.81
2022-10-25T02:54:23.646Z,14.79
2022-10-25T02:55:23.664Z,14.84
2022-10-25T02:56:23.643Z,14.85
2022-10-25T02:57:23.639Z,14.84
2022-10-25T02:58:23.633Z,14.73
2022-10-25T02:59:23.640Z,14.84
2022-10-25T03:00:23.910Z,14.79
2022-10-25T03:01:23.770Z,14.77
2022-10-25T03:02:23.645Z,14.81
2022-10-25T03:03:23.638Z,14.77
2022-10-25T03:04:23.633Z,14.81
2022-10-25T03:05:23.741Z,14.79
2022-10-25T03:06:23.619Z,14.77
2022-10-25T03:07:23.641Z,14.73
2022-10-25T03:08:23.677Z,14.66
2022-10-25T03:09:23.609Z,14.68
2022-10-25T03:10:23.618Z,14.68
2022-10-25T03:11:23.625Z,14.70
2022-10-25T03:12:23.635Z,14.68
2022-10-25T03:13:23.619Z,14.72
2022-10-25T03:14:23.587Z,14.65
2022-10-25T03:15:23.594Z,14.81
2022-10-25T03:16:23.626Z,14.69
2022-10-25T03:17:23.613Z,14.66
2022-10-25T03:18:23.594Z,14.78
2022-10-25T03:19:23.591Z,14.81
2022-10-25T03:20:23.611Z,14.69
2022-10-25T03:21:23.591Z,14.79
2022-10-25T03:22:23.600Z,14.72
2022-10-25T03:23:23.588Z,14.72
2022-10-25T03:24:23.583Z,14.77
2022-10-25T03:25:23.595Z,14.68
2022-10-25T03:26:23.582Z,14.69
2022-10-25T03:27:23.590Z,14.79
2022-10-25T03:28:23.579Z,14.68
2022-10-25T03:29:23.592Z,14.72
2022-10-25T03:30:23.571Z,14.66
2022-10-25T03:31:23.572Z,14.68
2022-10-25T03:32:23.701Z,14.66
2022-10-25T03:33:23.638Z,14.66
2022-10-25T03:34:23.606Z,14.73
2022-10-25T03:35:23.565Z,14.69
2022-10-25T03:36:23.550Z,14.69
2022-10-25T03:37:23.536Z,14.65
2022-10-25T03:38:23.565Z,14.66
2022-10-25T03:39:23.542Z,14.65
2022-10-25T03:40:23.525Z,14.66
2022-10-25T03:41:23.523Z,14.70
2022-10-25T03:42:23.517Z,14.60
2022-10-25T03:44:23.537Z,14.62
2022-10-25T03:45:23.514Z,14.55
2022-10-25T03:46:23.570Z,14.63
2022-10-25T03:47:23.512Z,14.60
2022-10-25T03:49:38.728Z,14.62
2022-10-25T03:50:38.721Z,14.62
2022-10-25T03:51:38.699Z,14.59
2022-10-25T03:52:38.697Z,14.65
2022-10-25T03:53:38.704Z,14.59
2022-10-25T03:54:38.697Z,14.58
2022-10-25T03:55:38.686Z,14.58
2022-10-25T03:56:38.696Z,14.58
2022-10-25T03:57:38.684Z,14.54
2022-10-25T03:58:38.677Z,14.62
2022-10-25T03:59:38.676Z,14.60
2022-10-25T04:00:38.731Z,14.48
2022-10-25T04:01:38.775Z,14.51
2022-10-25T04:02:38.677Z,14.59
2022-10-25T04:03:38.671Z,14.50
2022-10-25T04:04:38.669Z,14.50
2022-10-25T04:05:38.663Z,14.48
2022-10-25T04:06:38.658Z,14.59
2022-10-25T04:07:38.670Z,14.51
2022-10-25T04:08:38.712Z,14.60
2022-10-25T04:09:38.656Z,14.58
2022-10-25T04:10:38.653Z,14.55
2022-10-25T04:11:38.651Z,14.55
2022-10-25T04:12:38.672Z,14.63
2022-10-25T04:13:38.641Z,14.58
2022-10-25T04:14:38.641Z,14.62
2022-10-25T04:15:38.643Z,14.63
2022-10-25T04:16:38.628Z,14.63
2022-10-25T04:17:38.632Z,14.69
2022-10-25T04:18:38.623Z,14.63
2022-10-25T04:19:38.622Z,14.59
2022-10-25T04:20:38.621Z,14.58
2022-10-25T04:21:38.626Z,14.59
2022-10-25T04:22:38.624Z,14.63
2022-10-25T04:23:38.620Z,14.53
2022-10-25T04:24:38.616Z,14.55
2022-10-25T04:25:38.614Z,14.59
2022-10-25T04:26:38.620Z,14.51
2022-10-25T04:27:38.605Z,14.59
2022-10-25T04:28:38.608Z,14.50
2022-10-25T04:29:38.622Z,14.54
2022-10-25T04:30:38.989Z,14.59
2022-10-25T04:31:38.594Z,14.68
2022-10-25T04:32:38.596Z,14.68
2022-10-25T04:33:38.597Z,14.51
2022-10-25T04:34:38.607Z,14.54
2022-10-25T04:35:38.612Z,14.58
2022-10-25T04:36:38.627Z,14.63
2022-10-25T04:37:38.578Z,14.51
2022-10-25T04:38:38.608Z,14.54
2022-10-25T04:39:38.582Z,14.62
2022-10-25T04:40:38.579Z,14.50
2022-10-25T04:41:38.575Z,14.59
2022-10-25T04:42:38.570Z,14.60
2022-10-25T04:43:38.568Z,14.54
2022-10-25T04:44:38.570Z,14.62
2022-10-25T04:45:38.580Z,14.62
2022-10-25T04:46:38.554Z,14.62
2022-10-25T04:47:38.553Z,14.65
2022-10-25T04:48:38.555Z,14.58
2022-10-25T04:49:38.579Z,14.62
2022-10-25T04:50:38.576Z,14.63
2022-10-25T04:51:38.591Z,14.60
2022-10-25T04:52:38.547Z,14.59
2022-10-25T04:53:38.540Z,14.58
2022-10-25T04:54:38.554Z,14.55
2022-10-25T04:55:38.552Z,14.51
2022-10-25T04:56:38.534Z,14.58
2022-10-25T04:57:38.551Z,14.59
2022-10-25T04:58:38.531Z,14.58
2022-10-25T04:59:38.526Z,14.53
2022-10-25T05:00:38.516Z,14.51
2022-10-25T05:01:38.632Z,14.63
2022-10-25T05:02:38.624Z,14.53
2022-10-25T05:03:38.516Z,14.55
2022-10-25T05:04:38.514Z,14.55
2022-10-25T05:05:38.535Z,14.58
2022-10-25T05:06:38.522Z,14.48
2022-10-25T05:07:38.541Z,14.58
2022-10-25T05:08:38.551Z,14.53
2022-10-25T05:09:38.526Z,14.53
2022-10-25T05:10:38.503Z,14.53
2022-10-25T05:11:38.495Z,14.54
2022-10-25T05:12:38.501Z,14.53
2022-10-25T05:13:38.487Z,14.53
2022-10-25T05:14:38.481Z,14.54
2022-10-25T05:15:38.478Z,14.58
2022-10-25T05:16:38.472Z,14.45
2022-10-25T05:17:38.489Z,14.51
2022-10-25T05:18:38.490Z,14.50
2022-10-25T05:19:38.464Z,14.54
2022-10-25T05:20:38.500Z,14.58
2022-10-25T05:21:38.468Z,14.53
2022-10-25T05:22:38.458Z,14.53
2022-10-25T05:23:38.456Z,14.50
2022-10-25T05:24:38.454Z,14.47
2022-10-25T05:25:38.449Z,14.43
2022-10-25T05:26:38.453Z,14.41
2022-10-25T05:27:38.450Z,14.37
2022-10-25T05:28:38.464Z,14.35
2022-10-25T05:29:38.451Z,14.36
2022-10-25T05:30:38.442Z,14.41
2022-10-25T05:31:38.437Z,14.43
2022-10-25T05:32:38.437Z,14.41
2022-10-25T05:33:38.469Z,14.43
2022-10-25T05:34:38.430Z,14.36
2022-10-25T05:35:38.419Z,14.44
2022-10-25T05:36:38.430Z,14.40
2022-10-25T05:37:38.429Z,14.33
2022-10-25T05:38:38.436Z,14.36
2022-10-25T05:39:38.423Z,14.36
2022-10-25T05:40:38.406Z,14.32
2022-10-25T05:41:38.443Z,14.37
2022-10-25T05:42:38.431Z,14.32
2022-10-25T05:43:38.422Z,14.36
2022-10-25T05:44:38.410Z,14.30
2022-10-25T05:45:38.395Z,14.30
2022-10-25T05:46:38.419Z,14.32
2022-10-25T05:47:38.394Z,14.35
2022-10-25T05:48:38.399Z,14.15
2022-10-25T05:49:38.405Z,14.25
2022-10-25T05:50:38.406Z,14.29
2022-10-25T05:51:38.413Z,14.29
2022-10-25T05:52:38.383Z,14.23
2022-10-25T05:53:38.389Z,14.32
2022-10-25T05:54:38.384Z,14.23
2022-10-25T05:55:38.362Z,14.26
2022-10-25T05:56:38.386Z,14.30
2022-10-25T05:57:38.371Z,14.22
2022-10-25T05:58:38.365Z,14.22
2022-10-25T05:59:38.379Z,14.23
2022-10-25T06:01:38.552Z,14.30
2022-10-25T06:02:38.349Z,14.20
2022-10-25T06:03:38.381Z,14.23
2022-10-25T06:04:38.346Z,14.18
2022-10-25T06:05:38.345Z,14.22
2022-10-25T06:06:38.381Z,14.23
2022-10-25T06:07:38.341Z,14.23
2022-10-25T06:08:38.345Z,14.28
2022-10-25T06:09:38.326Z,14.25
2022-10-25T06:10:38.353Z,14.22
2022-10-25T06:11:38.323Z,14.26
2022-10-25T06:12:38.333Z,14.29
2022-10-25T06:13:38.319Z,14.36
2022-10-25T06:14:38.322Z,14.32
2022-10-25T06:15:38.328Z,14.33
2022-10-25T06:16:38.309Z,14.30
2022-10-25T06:17:38.319Z,14.32
2022-10-25T06:18:38.296Z,14.37
2022-10-25T06:19:38.298Z,14.32
2022-10-25T06:20:38.394Z,14.28
2022-10-25T06:21:38.304Z,14.30
2022-10-25T06:22:38.344Z,14.32
2022-10-25T06:23:38.292Z,14.32
2022-10-25T06:24:38.320Z,14.22
2022-10-25T06:25:38.305Z,14.30
2022-10-25T06:26:38.312Z,14.28
2022-10-25T06:27:38.286Z,14.32
2022-10-25T06:28:38.275Z,14.28
2022-10-25T06:29:38.309Z,14.28
2022-10-25T06:30:38.289Z,14.32
2022-10-25T06:31:38.271Z,14.32
2022-10-25T06:32:38.267Z,14.18
2022-10-25T06:33:38.270Z,14.25
2022-10-25T06:34:38.266Z,14.25
2022-10-25T06:35:38.250Z,14.29
2022-10-25T06:36:38.297Z,14.22
2022-10-25T06:37:38.238Z,14.25
2022-10-25T06:38:38.254Z,14.32
2022-10-25T06:39:38.249Z,14.35
2022-10-25T06:40:38.266Z,14.36
2022-10-25T06:41:38.279Z,14.32
2022-10-25T06:42:38.278Z,14.32
2022-10-25T06:43:38.235Z,14.32
2022-10-25T06:44:38.230Z,14.35
2022-10-25T06:45:38.234Z,14.36
2022-10-25T06:47:04.516Z,14.40
2022-10-25T06:47:38.243Z,14.33
2022-10-25T06:48:38.237Z,14.36
2022-10-25T06:49:38.223Z,14.36
2022-10-25T06:50:38.223Z,14.40
2022-10-25T06:51:38.234Z,14.37
2022-10-25T06:52:38.253Z,14.35
2022-10-25T06:53:38.228Z,14.44
2022-10-25T06:54:38.221Z,14.41
2022-10-25T06:55:38.195Z,14.37
2022-10-25T06:56:38.212Z,14.43
2022-10-25T06:57:38.206Z,14.40
2022-10-25T06:58:38.201Z,14.41
2022-10-25T06:59:38.192Z,14.33
2022-10-25T07:00:38.181Z,14.47
2022-10-25T07:01:38.255Z,14.47
2022-10-25T07:02:38.183Z,14.36
2022-10-25T07:03:38.232Z,14.41
2022-10-25T07:04:38.187Z,14.54
2022-10-25T07:05:38.230Z,14.54
2022-10-25T07:06:38.204Z,14.55
2022-10-25T07:07:38.208Z,14.54
2022-10-25T07:08:38.167Z,14.53
2022-10-25T07:09:38.162Z,14.51
2022-10-25T07:10:38.154Z,14.50
2022-10-25T07:11:38.151Z,14.58
2022-10-25T07:12:38.186Z,14.53
2022-10-25T07:13:38.166Z,14.53
2022-10-25T07:14:38.167Z,14.53
2022-10-25T07:15:41.309Z,14.47
2022-10-25T07:16:38.174Z,14.51
2022-10-25T07:17:38.164Z,14.53
2022-10-25T07:18:38.144Z,14.53
2022-10-25T07:19:38.146Z,14.47
2022-10-25T07:20:38.235Z,14.50
2022-10-25T07:21:38.141Z,14.63
2022-10-25T07:22:38.148Z,14.58
2022-10-25T07:23:38.131Z,14.59
2022-10-25T07:24:38.166Z,14.63
2022-10-25T07:25:38.144Z,14.55
2022-10-25T07:26:38.170Z,14.68
2022-10-25T07:27:38.139Z,14.65
2022-10-25T07:28:38.124Z,14.70
2022-10-25T07:29:38.114Z,14.79
2022-10-25T07:30:38.170Z,14.79
2022-10-25T07:31:38.113Z,14.68
2022-10-25T07:32:41.572Z,14.69
2022-10-25T07:33:38.098Z,14.69
2022-10-25T07:34:38.107Z,14.70
2022-10-25T07:35:46.754Z,14.72
2022-10-25T07:36:38.111Z,14.68
2022-10-25T07:37:38.138Z,14.68
2022-10-25T07:38:38.095Z,14.66
2022-10-25T07:39:38.127Z,14.70
2022-10-25T07:40:38.118Z,14.66
2022-10-25T07:41:38.132Z,14.62
2022-10-25T07:42:38.083Z,14.72
2022-10-25T07:43:38.087Z,14.73
2022-10-25T07:44:38.147Z,14.69
2022-10-25T07:45:38.079Z,14.68
2022-10-25T07:46:38.072Z,14.69
2022-10-25T07:47:38.084Z,14.81
2022-10-25T07:48:38.079Z,14.78
2022-10-25T07:49:38.076Z,14.89
2022-10-25T07:50:38.067Z,15.10
2022-10-25T07:51:38.067Z,15.35
2022-10-25T07:52:38.078Z,15.57
2022-10-25T07:53:38.063Z,15.75
2022-10-25T07:54:38.091Z,15.90
2022-10-25T07:55:38.062Z,15.95
2022-10-25T07:56:38.088Z,16.01
2022-10-25T07:57:38.058Z,15.97
2022-10-25T07:58:38.082Z,15.91
2022-10-25T07:59:38.081Z,15.84
2022-10-25T08:00:38.087Z,15.80
2022-10-25T08:01:38.161Z,15.73
2022-10-25T08:02:38.123Z,15.62
2022-10-25T08:03:38.052Z,15.52
2022-10-25T08:04:38.088Z,15.44
2022-10-25T08:05:38.126Z,15.49
2022-10-25T08:06:38.049Z,15.43
2022-10-25T08:07:38.052Z,15.28
2022-10-25T08:08:38.057Z,15.29
2022-10-25T08:09:38.861Z,15.28
2022-10-25T08:10:38.058Z,15.25
2022-10-25T08:11:38.085Z,15.29
2022-10-25T08:12:38.042Z,15.33
2022-10-25T08:13:38.048Z,15.31
2022-10-25T08:14:40.899Z,15.33
2022-10-25T08:15:38.122Z,15.35
2022-10-25T08:16:38.048Z,15.29
2022-10-25T08:17:38.035Z,15.33
2022-10-25T08:18:38.062Z,15.24
2022-10-25T08:19:38.089Z,15.21
2022-10-25T08:21:00.543Z,15.25
2022-10-25T08:21:38.034Z,15.25
2022-10-25T08:22:38.065Z,15.24
2022-10-25T08:23:38.044Z,15.24
2022-10-25T08:24:38.054Z,15.19
2022-10-25T08:25:38.095Z,15.22
2022-10-25T08:26:38.027Z,15.14
2022-10-25T08:27:38.047Z,15.10
2022-10-25T08:28:38.030Z,15.10
2022-10-25T08:29:38.023Z,15.14
2022-10-25T08:30:38.071Z,15.09
2022-10-25T08:31:38.044Z,15.14
2022-10-25T08:32:38.022Z,15.14
2022-10-25T08:33:38.017Z,15.14
2022-10-25T08:34:38.021Z,15.09
2022-10-25T08:35:38.012Z,15.14
2022-10-25T08:36:38.031Z,15.14
2022-10-25T08:37:38.012Z,15.09
2022-10-25T08:38:38.013Z,15.15
2022-10-25T08:39:38.002Z,15.14
2022-10-25T08:40:38.004Z,15.14
2022-10-25T08:41:38.005Z,15.14
2022-10-25T08:42:38.000Z,15.07
2022-10-25T08:43:38.009Z,15.10
2022-10-25T08:44:38.067Z,15.14
2022-10-25T08:45:38.018Z,15.06
2022-10-25T08:46:37.993Z,15.09
2022-10-25T08:47:38.046Z,15.09
2022-10-25T08:48:37.990Z,15.02
2022-10-25T08:49:38.002Z,15.07
2022-10-25T08:50:38.012Z,15.07
2022-10-25T08:51:37.982Z,15.09
2022-10-25T08:52:37.980Z,15.02
2022-10-25T08:53:37.982Z,15.02
2022-10-25T08:54:37.981Z,14.99
2022-10-25T08:55:41.701Z,14.99
2022-10-25T08:56:46.670Z,14.97
2022-10-25T08:57:37.984Z,15.00
2022-10-25T08:58:37.992Z,15.03
2022-10-25T08:59:38.010Z,15.02
2022-10-25T09:00:37.986Z,15.00
2022-10-25T09:01:38.064Z,15.07
2022-10-25T09:02:37.991Z,15.14
2022-10-25T09:03:38.010Z,15.07
2022-10-25T09:04:37.956Z,15.17
2022-10-25T09:05:38.026Z,15.18
2022-10-25T09:06:37.959Z,15.28
2022-10-25T09:07:40.592Z,15.17
2022-10-25T09:08:37.958Z,15.24
2022-10-25T09:09:37.983Z,15.17
2022-10-25T09:10:37.948Z,15.14
2022-10-25T09:11:37.951Z,15.17
2022-10-25T09:12:37.934Z,15.14
2022-10-25T09:13:37.960Z,15.14
2022-10-25T09:14:37.936Z,15.22
2022-10-25T09:15:40.498Z,15.21
2022-10-25T09:16:37.939Z,15.17
2022-10-25T09:17:37.942Z,15.27
2022-10-25T09:18:37.927Z,15.24
2022-10-25T09:19:37.941Z,15.24
2022-10-25T09:20:37.920Z,15.25
2022-10-25T09:21:37.921Z,15.24
2022-10-25T09:22:37.921Z,15.28
2022-10-25T09:23:37.943Z,15.22
2022-10-25T09:24:37.924Z,15.28
2022-10-25T09:25:37.912Z,15.25
2022-10-25T09:26:37.909Z,15.19
2022-10-25T09:27:37.928Z,15.33
2022-10-25T09:28:37.910Z,15.31
2022-10-25T09:29:37.908Z,15.36
2022-10-25T09:30:37.908Z,15.27
2022-10-25T09:31:37.895Z,15.31
2022-10-25T09:32:37.890Z,15.36
2022-10-25T09:33:37.894Z,15.36
2022-10-25T09:34:37.926Z,15.35
2022-10-25T09:35:37.904Z,15.52
2022-10-25T09:36:37.895Z,15.47
2022-10-25T09:37:37.921Z,15.51
2022-10-25T09:38:37.899Z,15.58
2022-10-25T09:39:37.893Z,15.55
2022-10-25T09:40:45.010Z,15.57
2022-10-25T09:41:37.894Z,15.58
2022-10-25T09:42:37.890Z,15.72
2022-10-25T09:43:37.884Z,15.76
2022-10-25T09:44:37.876Z,15.77
2022-10-25T09:45:39.850Z,15.82
2022-10-25T09:46:37.883Z,15.94
2022-10-25T09:47:37.878Z,15.92
2022-10-25T09:48:37.886Z,15.92
2022-10-25T09:49:37.876Z,15.91
2022-10-25T09:50:37.888Z,15.86
2022-10-25T09:51:37.877Z,15.88
2022-10-25T09:52:37.870Z,15.95
2022-10-25T09:53:37.861Z,15.92
2022-10-25T09:54:37.872Z,15.88
2022-10-25T09:55:37.869Z,15.91
2022-10-25T09:56:37.859Z,15.94
2022-10-25T09:57:37.854Z,15.94
2022-10-25T09:58:37.868Z,15.95
2022-10-25T09:59:38.005Z,15.88
2022-10-25T10:00:37.851Z,15.94
2022-10-25T10:01:38.032Z,15.91
2022-10-25T10:02:37.933Z,15.97
2022-10-25T10:03:37.863Z,15.84
2022-10-25T10:04:37.850Z,15.90
2022-10-25T10:05:37.847Z,15.98
2022-10-25T10:06:37.853Z,15.94
2022-10-25T10:07:37.857Z,15.86
2022-10-25T10:08:37.838Z,16.02
2022-10-25T10:09:41.036Z,15.86
2022-10-25T10:10:37.851Z,15.84
2022-10-25T10:11:37.854Z,15.88
2022-10-25T10:12:37.842Z,15.84
2022-10-25T10:13:37.859Z,15.79
2022-10-25T10:14:37.846Z,15.83
2022-10-25T10:15:37.858Z,15.79
2022-10-25T10:16:37.905Z,15.86
2022-10-25T10:17:37.835Z,15.86
2022-10-25T10:18:37.847Z,15.90
2022-10-25T10:19:37.830Z,15.86
2022-10-25T10:20:37.824Z,15.82
2022-10-25T10:21:37.826Z,15.84
2022-10-25T10:22:37.905Z,15.84
2022-10-25T10:23:37.811Z,15.83
2022-10-25T10:24:37.818Z,15.84
2022-10-25T10:25:37.810Z,15.80
2022-10-25T10:26:37.808Z,15.84
2022-10-25T10:27:37.820Z,15.77
2022-10-25T10:28:37.808Z,15.77
2022-10-25T10:29:37.805Z,15.75
2022-10-25T10:30:37.823Z,15.84
2022-10-25T10:31:37.830Z,15.80
2022-10-25T10:32:37.867Z,15.76
2022-10-25T10:33:37.803Z,15.82
2022-10-25T10:34:37.815Z,15.79
2022-10-25T10:35:37.829Z,15.75
2022-10-25T10:36:37.809Z,15.72
2022-10-25T10:37:37.793Z,15.76
2022-10-25T10:38:37.812Z,15.68
2022-10-25T10:39:37.860Z,15.68
2022-10-25T10:40:37.855Z,15.72
2022-10-25T10:41:37.793Z,15.75
2022-10-25T10:42:37.920Z,15.68
2022-10-25T10:43:37.789Z,15.76
2022-10-25T10:44:37.822Z,15.72
2022-10-25T10:45:37.790Z,15.77
2022-10-25T10:46:37.845Z,15.73
2022-10-25T10:47:37.786Z,15.77
2022-10-25T10:48:42.974Z,15.76
2022-10-25T10:49:37.774Z,15.86
2022-10-25T10:50:37.775Z,15.75
2022-10-25T10:51:45.533Z,15.77
2022-10-25T10:52:37.794Z,15.75
2022-10-25T10:53:37.788Z,15.76
2022-10-25T10:54:37.774Z,15.88
2022-10-25T10:55:37.767Z,15.83
2022-10-25T10:56:37.811Z,15.80
2022-10-25T10:57:37.797Z,15.84
2022-10-25T10:58:37.751Z,15.83
2022-10-25T10:59:37.771Z,15.73
2022-10-25T11:00:37.761Z,15.90
2022-10-25T11:01:37.967Z,15.92
2022-10-25T11:02:37.940Z,15.83
2022-10-25T11:03:37.753Z,15.95
2022-10-25T11:04:37.746Z,15.95
2022-10-25T11:05:37.753Z,16.04
2022-10-25T11:06:37.735Z,16.01
2022-10-25T11:07:37.766Z,16.04
2022-10-25T11:08:37.736Z,16.04
2022-10-25T11:09:37.737Z,16.05
2022-10-25T11:10:37.741Z,16.26
2022-10-25T11:11:37.745Z,16.28
2022-10-25T11:12:41.149Z,16.26
2022-10-25T11:13:37.731Z,16.35
2022-10-25T11:14:37.749Z,16.29
2022-10-25T11:15:37.741Z,16.36
2022-10-25T11:16:37.735Z,16.38
2022-10-25T11:17:37.725Z,16.47
2022-10-25T11:18:37.736Z,16.47
2022-10-25T11:19:37.733Z,16.57
2022-10-25T11:20:37.750Z,16.54
2022-10-25T11:21:37.817Z,16.60
2022-10-25T11:22:37.867Z,16.61
2022-10-25T11:23:37.725Z,16.64
2022-10-25T11:24:37.721Z,16.68
2022-10-25T11:25:37.758Z,16.65
2022-10-25T11:26:37.779Z,16.68
2022-10-25T11:27:37.806Z,16.71
2022-10-25T11:28:37.719Z,16.76
2022-10-25T11:29:37.751Z,16.72
2022-10-25T11:30:37.722Z,16.79
2022-10-25T11:31:37.727Z,16.79
2022-10-25T11:32:37.960Z,16.83
2022-10-25T11:33:37.721Z,16.86
2022-10-25T11:34:37.727Z,16.89
2022-10-25T11:35:37.711Z,16.91
2022-10-25T11:36:37.735Z,16.94
2022-10-25T11:37:37.806Z,17.04
2022-10-25T11:38:37.715Z,16.99
2022-10-25T11:39:37.713Z,17.02
2022-10-25T11:40:37.703Z,17.05
2022-10-25T11:41:37.729Z,17.02
2022-10-25T11:42:37.709Z,17.02
2022-10-25T11:43:37.724Z,17.02
2022-10-25T11:44:39.772Z,17.14
2022-10-25T11:45:37.723Z,17.06
2022-10-25T11:46:37.743Z,17.14
2022-10-25T11:47:42.377Z,17.12
2022-10-25T11:48:37.715Z,17.12
2022-10-25T11:49:37.710Z,17.19
2022-10-25T11:50:37.735Z,17.12
2022-10-25T11:51:37.702Z,17.22
2022-10-25T11:52:37.750Z,17.16
2022-10-25T11:53:37.803Z,17.19
2022-10-25T11:54:37.710Z,17.22
2022-10-25T11:55:37.736Z,17.22
2022-10-25T11:56:37.729Z,17.22
2022-10-25T11:57:37.732Z,17.22
2022-10-25T11:58:37.730Z,17.24
2022-10-25T11:59:37.743Z,17.29
2022-10-25T12:00:37.734Z,17.30
2022-10-25T12:01:37.785Z,17.33
2022-10-25T12:02:37.847Z,17.34
2022-10-25T12:03:37.727Z,17.31
2022-10-25T12:04:37.985Z,17.22
2022-10-25T12:05:37.728Z,17.30
2022-10-25T12:06:37.715Z,17.30
2022-10-25T12:07:37.750Z,17.20
2022-10-25T12:08:37.710Z,17.26
2022-10-25T12:09:37.840Z,17.24
2022-10-25T12:10:37.763Z,17.20
2022-10-25T12:11:37.699Z,17.19
2022-10-25T12:12:37.728Z,17.09
2022-10-25T12:13:37.741Z,17.12
2022-10-25T12:14:37.703Z,17.20
2022-10-25T12:15:37.719Z,17.08
2022-10-25T12:16:37.699Z,17.06
2022-10-25T12:17:37.714Z,17.04
2022-10-25T12:18:37.729Z,16.99
2022-10-25T12:19:37.697Z,16.97
2022-10-25T12:20:37.935Z,16.90
2022-10-25T12:21:37.693Z,16.84
2022-10-25T12:22:37.713Z,16.86
2022-10-25T12:23:37.699Z,16.90
2022-10-25T12:24:37.689Z,16.78
2022-10-25T12:25:37.793Z,16.79
2022-10-25T12:26:37.764Z,16.74
2022-10-25T12:27:37.685Z,16.74
2022-10-25T12:28:37.689Z,16.65
2022-10-25T12:29:37.727Z,16.71
2022-10-25T12:30:37.705Z,16.74
2022-10-25T12:31:37.673Z,16.69
2022-10-25T12:32:37.809Z,16.71
2022-10-25T12:33:37.680Z,16.76
2022-10-25T12:34:37.678Z,16.76
2022-10-25T12:35:40.070Z,16.71
2022-10-25T12:36:37.690Z,16.65
2022-10-25T12:37:37.678Z,16.74
2022-10-25T12:38:37.727Z,16.69
2022-10-25T12:39:37.684Z,16.71
2022-10-25T12:40:40.465Z,16.65
2022-10-25T12:41:37.819Z,16.76
2022-10-25T12:42:37.666Z,16.68
2022-10-25T12:43:37.673Z,16.76
2022-10-25T12:44:37.660Z,16.74
2022-10-25T12:45:37.673Z,16.71
2022-10-25T12:46:37.689Z,16.72
2022-10-25T12:47:37.657Z,16.69
2022-10-25T12:48:37.696Z,16.68
2022-10-25T12:49:37.671Z,16.65
2022-10-25T12:50:37.663Z,16.61
2022-10-25T12:51:37.667Z,16.61
2022-10-25T12:52:37.675Z,16.64
2022-10-25T12:53:37.655Z,16.64
2022-10-25T12:54:37.661Z,16.61
2022-10-25T12:55:37.658Z,16.57
2022-10-25T12:56:37.646Z,16.57